Time;durP1;ratioP1;P1;durP2;ratioP2;P2;SDS_P1;SDS_P2;PMS_P1;PMS_P2;Temp;Humidity;BMP_temperature;BMP_pressure;BME280_temperature;BME280_humidity;BME280_pressure;Samples;Min_cycle;Max_cycle;Signal;HPM_P1;HPM_P2
2023/05/18 00:04:09;;;;;;;9.02;3.13;;;;;;;;;;10592393;27;20199;-84
2023/05/18 00:09:12;;;;;;;5.73;2.83;;;;;;;;;;10593598;27;20613;-84
2023/05/18 00:14:16;;;;;;;8.07;3.35;;;;;;;;;;10612573;27;20035;-84
2023/05/18 00:19:19;;;;;;;8.02;3.28;;;;;;;;;;10618413;27;20114;-85
2023/05/18 00:24:23;;;;;;;10.20;4.00;;;;;;;;;;10597367;27;20246;-87
2023/05/18 00:29:27;;;;;;;7.00;3.20;;;;;;;;;;10565916;27;20123;-82
2023/05/18 00:34:30;;;;;;;;;;;;;;;;;;10567711;27;20036;-80
2023/05/18 00:39:32;;;;;;;9.18;3.38;;;;;;;;;;10569293;27;19923;-80
2023/05/18 00:44:36;;;;;;;8.55;3.45;;;;;;;;;;10568883;27;20104;-82
2023/05/18 00:49:39;;;;;;;9.57;3.05;;;;;;;;;;10566862;27;20060;-78
2023/05/18 00:54:42;;;;;;;9.73;3.83;;;;;;;;;;10572630;27;20031;-79
2023/05/18 00:59:46;;;;;;;12.93;3.60;;;;;;;;;;10572448;27;20043;-80
2023/05/18 01:04:51;;;;;;;10.63;3.70;;;;;;;;;;10569076;28;20125;-79
2023/05/18 01:09:54;;;;;;;10.50;3.90;;;;;;;;;;10567129;27;20135;-79
2023/05/18 01:15:03;;;;;;;12.70;3.90;;;;;;;;;;10570102;27;20055;-80
2023/05/18 01:20:13;;;;;;;9.20;3.67;;;;;;;;;;10569109;27;20046;-80
2023/05/18 01:25:18;;;;;;;11.60;3.83;;;;;;;;;;10568040;28;20151;-81
2023/05/18 01:30:22;;;;;;;9.80;3.85;;;;;;;;;;10565828;28;20381;-81
2023/05/18 01:35:25;;;;;;;10.82;4.15;;;;;;;;;;10565259;28;20122;-79
2023/05/18 01:40:31;;;;;;;8.20;3.58;;;;;;;;;;10561521;28;20545;-79
2023/05/18 01:45:37;;;;;;;8.45;3.15;;;;;;;;;;10565183;28;20122;-79
2023/05/18 01:50:42;;;;;;;8.82;3.55;;;;;;;;;;10560482;28;20084;-80
2023/05/18 01:55:45;;;;;;;12.02;3.40;;;;;;;;;;10566165;28;20043;-79
2023/05/18 02:00:50;;;;;;;9.87;3.50;;;;;;;;;;10563490;28;20115;-79
2023/05/18 02:05:52;;;;;;;9.32;2.60;;;;;;;;;;10566040;27;20484;-82
2023/05/18 02:10:55;;;;;;;7.28;2.70;;;;;;;;;;10566592;28;20034;-82
2023/05/18 02:15:59;;;;;;;6.50;2.38;;;;;;;;;;10564449;27;20527;-81
2023/05/18 02:21:02;;;;;;;6.35;3.00;;;;;;;;;;10562597;27;20365;-81
2023/05/18 02:26:06;;;;;;;7.93;2.72;;;;;;;;;;10564232;27;20313;-82
2023/05/18 02:31:12;;;;;;;10.52;3.67;;;;;;;;;;10563132;28;20296;-83
2023/05/18 02:36:17;;;;;;;5.30;2.47;;;;;;;;;;10566139;28;20040;-82
2023/05/18 02:41:20;;;;;;;8.57;3.03;;;;;;;;;;10561153;27;20043;-80
2023/05/18 02:46:24;;;;;;;8.23;3.20;;;;;;;;;;10560203;28;20130;-79
2023/05/18 02:51:27;;;;;;;8.70;3.53;;;;;;;;;;10567813;27;20600;-80
2023/05/18 02:56:31;;;;;;;9.90;3.67;;;;;;;;;;10566525;27;20130;-79
2023/05/18 03:01:36;;;;;;;9.68;3.10;;;;;;;;;;10566636;27;20051;-79
2023/05/18 03:06:39;;;;;;;8.10;2.85;;;;;;;;;;10564609;27;20174;-82
2023/05/18 03:11:42;;;;;;;7.22;3.05;;;;;;;;;;10564019;28;20032;-81
2023/05/18 03:16:46;;;;;;;8.25;2.85;;;;;;;;;;10565097;28;20043;-82
2023/05/18 03:21:49;;;;;;;8.32;3.13;;;;;;;;;;10557257;28;20083;-79
2023/05/18 03:26:53;;;;;;;7.15;3.22;;;;;;;;;;10566430;28;20471;-79
2023/05/18 03:31:58;;;;;;;6.90;2.85;;;;;;;;;;10555233;28;20028;-79
2023/05/18 03:37:00;;;;;;;7.95;3.22;;;;;;;;;;10560683;28;20138;-79
2023/05/18 03:42:03;;;;;;;9.07;3.22;;;;;;;;;;10561684;28;20028;-80
2023/05/18 03:47:07;;;;;;;8.93;3.00;;;;;;;;;;10559072;28;20043;-81
2023/05/18 03:52:10;;;;;;;;;;;;;;;;;;10564989;28;20153;-80
2023/05/18 03:57:12;;;;;;;6.13;3.25;;;;;;;;;;10562202;27;19930;-81
2023/05/18 04:02:17;;;;;;;8.05;3.50;;;;;;;;;;10566471;27;20055;-82
2023/05/18 04:07:23;;;;;;;7.85;3.15;;;;;;;;;;10567883;27;20561;-82
2023/05/18 04:12:25;;;;;;;7.38;3.47;;;;;;;;;;10566281;27;20496;-84
2023/05/18 04:17:29;;;;;;;6.72;3.42;;;;;;;;;;10571062;27;20572;-81
2023/05/18 04:22:35;;;;;;;14.38;3.63;;;;;;;;;;10570402;27;20076;-82
2023/05/18 04:27:38;;;;;;;7.80;3.53;;;;;;;;;;10571421;27;20031;-82
2023/05/18 04:32:42;;;;;;;8.18;2.53;;;;;;;;;;10569908;27;20032;-80
2023/05/18 04:37:45;;;;;;;6.32;2.95;;;;;;;;;;10570126;28;20051;-82
2023/05/18 04:42:47;;;;;;;14.77;3.92;;;;;;;;;;10567602;27;20032;-81
2023/05/18 04:47:52;;;;;;;8.25;3.50;;;;;;;;;;10567122;28;20054;-80
2023/05/18 04:52:56;;;;;;;6.32;3.42;;;;;;;;;;10570033;27;20031;-81
2023/05/18 04:58:00;;;;;;;8.95;3.47;;;;;;;;;;10568662;27;20211;-82
2023/05/18 05:03:04;;;;;;;5.78;3.03;;;;;;;;;;10567591;27;20407;-81
2023/05/18 05:08:07;;;;;;;6.45;3.28;;;;;;;;;;10569591;27;20047;-81
2023/05/18 05:13:10;;;;;;;5.93;3.22;;;;;;;;;;10564054;27;20049;-80
2023/05/18 05:18:14;;;;;;;10.43;3.50;;;;;;;;;;10567852;27;20046;-80
2023/05/18 05:23:17;;;;;;;11.23;3.97;;;;;;;;;;10569111;27;20088;-82
2023/05/18 05:28:20;;;;;;;11.05;4.45;;;;;;;;;;10569572;27;20093;-81
2023/05/18 05:33:24;;;;;;;8.85;4.32;;;;;;;;;;10569809;28;20035;-79
2023/05/18 05:38:26;;;;;;;9.18;4.13;;;;;;;;;;10564859;28;20046;-77
2023/05/18 05:43:29;;;;;;;8.82;3.63;;;;;;;;;;10563110;27;20300;-81
2023/05/18 05:48:33;;;;;;;9.32;4.30;;;;;;;;;;10566875;28;20109;-79
2023/05/18 05:53:35;;;;;;;;;;;;;;;;;;10565280;27;20051;-79
2023/05/18 05:58:41;;;;;;;5.82;2.85;;;;;;;;;;10567992;27;20305;-80
2023/05/18 06:03:45;;;;;;;8.75;3.28;;;;;;;;;;10562896;27;20613;-79
2023/05/18 06:08:48;;;;;;;;;;;;;;;;;;10563372;28;20104;-80
2023/05/18 06:13:52;;;;;;;7.35;3.75;;;;;;;;;;10567027;27;19926;-80
2023/05/18 06:18:56;;;;;;;10.48;4.10;;;;;;;;;;10568180;27;20471;-80
2023/05/18 06:24:00;;;;;;;;;;;;;;;;;;10568313;28;20031;-81
2023/05/18 06:29:04;;;;;;;5.93;3.10;;;;;;;;;;10567257;28;19923;-80
2023/05/18 06:34:07;;;;;;;;;;;;;;;;;;10563025;27;20123;-80
2023/05/18 06:39:11;;;;;;;6.00;2.90;;;;;;;;;;10563024;27;19919;-81
2023/05/18 06:44:13;;;;;;;;;;;;;;;;;;10563352;27;20066;-81
2023/05/18 06:49:16;;;;;;;8.75;3.78;;;;;;;;;;10562551;28;20237;-82
2023/05/18 06:54:20;;;;;;;10.45;3.67;;;;;;;;;;10566695;28;20636;-81
2023/05/18 06:59:23;;;;;;;9.23;3.95;;;;;;;;;;10560411;28;20126;-81
2023/05/18 07:04:26;;;;;;;5.35;2.65;;;;;;;;;;10559781;28;20123;-80
2023/05/18 07:09:30;;;;;;;10.50;3.67;;;;;;;;;;10560462;28;20097;-80
2023/05/18 07:14:32;;;;;;;;;;;;;;;;;;10558639;28;20510;-80
2023/05/18 07:19:35;;;;;;;8.05;3.03;;;;;;;;;;10563609;28;19926;-80
2023/05/18 07:24:39;;;;;;;7.30;3.38;;;;;;;;;;10561731;28;20154;-79
2023/05/18 07:29:41;;;;;;;5.35;3.17;;;;;;;;;;10557058;28;20044;-78
2023/05/18 07:34:45;;;;;;;6.88;3.53;;;;;;;;;;10570691;27;20403;-78
2023/05/18 07:39:48;;;;;;;;;;;;;;;;;;10568067;28;20052;-78
2023/05/18 07:44:52;;;;;;;7.30;2.72;;;;;;;;;;10571274;28;19945;-78
2023/05/18 07:49:55;;;;;;;10.98;3.30;;;;;;;;;;10569583;27;20078;-78
2023/05/18 07:54:58;;;;;;;7.85;3.40;;;;;;;;;;10569391;27;20032;-79
2023/05/18 08:00:03;;;;;;;7.13;3.00;;;;;;;;;;10563701;27;20400;-78
2023/05/18 08:05:07;;;;;;;7.35;3.60;;;;;;;;;;10567854;27;20114;-79
2023/05/18 08:10:10;;;;;;;6.00;2.83;;;;;;;;;;10571277;28;20044;-79
2023/05/18 08:15:14;;;;;;;10.52;3.50;;;;;;;;;;10565108;27;20063;-77
2023/05/18 08:20:17;;;;;;;5.72;3.17;;;;;;;;;;10562733;27;20036;-78
2023/05/18 08:25:20;;;;;;;7.45;3.25;;;;;;;;;;10570236;28;20113;-80
2023/05/18 08:30:25;;;;;;;8.68;3.25;;;;;;;;;;10564893;27;20406;-80
2023/05/18 08:35:29;;;;;;;9.60;3.53;;;;;;;;;;10567238;27;20042;-80
2023/05/18 08:40:35;;;;;;;4.47;2.60;;;;;;;;;;10568753;27;20031;-80
2023/05/18 08:45:41;;;;;;;5.82;2.53;;;;;;;;;;10561729;27;20030;-80
2023/05/18 08:50:44;;;;;;;9.55;2.53;;;;;;;;;;10568397;27;20048;-79
2023/05/18 08:55:47;;;;;;;6.95;3.20;;;;;;;;;;10567779;27;20496;-79
2023/05/18 09:00:53;;;;;;;5.15;2.38;;;;;;;;;;10566294;28;20104;-79
2023/05/18 09:05:56;;;;;;;7.13;3.30;;;;;;;;;;10563576;28;20122;-79
2023/05/18 09:11:01;;;;;;;6.90;3.25;;;;;;;;;;10566450;27;20101;-80
2023/05/18 09:16:06;;;;;;;4.10;2.00;;;;;;;;;;10562178;27;20172;-80
2023/05/18 09:21:09;;;;;;;5.90;2.90;;;;;;;;;;10568627;27;20047;-78
2023/05/18 09:26:12;;;;;;;7.15;2.78;;;;;;;;;;10567413;28;20061;-79
2023/05/18 09:31:18;;;;;;;5.25;3.00;;;;;;;;;;10565350;27;20043;-78
2023/05/18 09:36:24;;;;;;;6.88;3.25;;;;;;;;;;10563949;28;20453;-79
2023/05/18 09:41:27;;;;;;;8.98;3.28;;;;;;;;;;10568052;27;20063;-78
2023/05/18 09:46:35;;;;;;;5.40;3.30;;;;;;;;;;10566156;27;20494;-80
2023/05/18 09:51:38;;;;;;;6.88;2.90;;;;;;;;;;10564058;28;20412;-80
2023/05/18 09:56:41;;;;;;;6.13;2.78;;;;;;;;;;10565334;28;20423;-79
2023/05/18 10:01:56;;;;;;;5.30;2.55;;;;;;;;;;10566380;27;20135;-79
2023/05/18 10:07:00;;;;;;;6.70;2.60;;;;;;;;;;10563796;28;20344;-80
2023/05/18 10:12:03;;;;;;;9.35;3.22;;;;;;;;;;10562855;27;20055;-79
2023/05/18 10:17:07;;;;;;;6.50;2.85;;;;;;;;;;10554703;27;20088;-79
2023/05/18 10:22:16;;;;;;;6.03;3.42;;;;;;;;;;10548497;28;20397;-79
2023/05/18 10:27:23;;;;;;;5.47;2.63;;;;;;;;;;10564500;27;20051;-79
2023/05/18 10:32:29;;;;;;;9.55;2.67;;;;;;;;;;10562132;27;20047;-79
2023/05/18 10:37:35;;;;;;;6.40;2.70;;;;;;;;;;10575415;27;20440;-80
2023/05/18 10:42:38;;;;;;;4.80;2.03;;;;;;;;;;10563469;28;20059;-79
2023/05/18 10:47:43;;;;;;;9.27;2.50;;;;;;;;;;10562594;28;20039;-79
2023/05/18 10:52:46;;;;;;;7.30;3.03;;;;;;;;;;10567043;28;20070;-79
2023/05/18 10:57:52;;;;;;;4.40;2.05;;;;;;;;;;10559568;27;20043;-80
2023/05/18 11:02:56;;;;;;;8.57;2.92;;;;;;;;;;10562468;28;20536;-79
2023/05/18 11:08:00;;;;;;;3.20;1.40;;;;;;;;;;10561263;28;20040;-79
2023/05/18 11:13:03;;;;;;;6.18;2.50;;;;;;;;;;10561779;28;20527;-78
2023/05/18 11:18:16;;;;;;;4.28;1.67;;;;;;;;;;10559727;28;20044;-80
2023/05/18 11:23:19;;;;;;;;;;;;;;;;;;10562620;28;20035;-79
2023/05/18 11:28:22;;;;;;;7.97;2.58;;;;;;;;;;10564476;28;20280;-79
2023/05/18 11:33:27;;;;;;;6.73;2.30;;;;;;;;;;10558922;28;20637;-80
2023/05/18 11:39:00;;;;;;;5.72;2.47;;;;;;;;;;10561717;28;20051;-79
2023/05/18 11:44:20;;;;;;;4.88;1.95;;;;;;;;;;10463453;28;20401;-79
2023/05/18 11:49:26;;;;;;;10.30;2.25;;;;;;;;;;10562890;28;20135;-80
2023/05/18 11:54:28;;;;;;;3.45;1.83;;;;;;;;;;10563615;28;20434;-80
2023/05/18 11:59:32;;;;;;;4.90;2.07;;;;;;;;;;10560169;28;20071;-80
2023/05/18 12:04:36;;;;;;;;;;;;;;;;;;10561134;28;20525;-81
2023/05/18 12:09:42;;;;;;;6.70;2.33;;;;;;;;;;10562342;28;20026;-80
2023/05/18 12:14:46;;;;;;;5.32;2.30;;;;;;;;;;10557843;28;20499;-80
2023/05/18 12:19:49;;;;;;;5.38;2.08;;;;;;;;;;10568333;28;20071;-80
2023/05/18 12:24:54;;;;;;;6.38;1.75;;;;;;;;;;10568929;27;20071;-80
2023/05/18 12:29:56;;;;;;;3.08;1.63;;;;;;;;;;10569573;27;20074;-79
2023/05/18 12:35:00;;;;;;;3.17;2.33;;;;;;;;;;10565622;28;20261;-79
2023/05/18 12:40:05;;;;;;;3.78;1.90;;;;;;;;;;10566543;27;20046;-81
2023/05/18 12:45:09;;;;;;;1.40;1.25;;;;;;;;;;10568867;27;20122;-81
2023/05/18 12:50:12;;;;;;;2.85;1.98;;;;;;;;;;10568186;27;20029;-78
2023/05/18 12:55:20;;;;;;;4.32;2.50;;;;;;;;;;10566060;27;20130;-79
2023/05/18 13:00:22;;;;;;;6.35;2.60;;;;;;;;;;10567613;28;20070;-79
2023/05/18 13:05:25;;;;;;;2.10;1.50;;;;;;;;;;10564362;27;20112;-79
2023/05/18 13:10:31;;;;;;;3.78;1.83;;;;;;;;;;10567371;27;20504;-80
2023/05/18 13:15:35;;;;;;;6.13;2.38;;;;;;;;;;10564258;27;20067;-79
2023/05/18 13:20:39;;;;;;;5.18;2.30;;;;;;;;;;10577223;27;20047;-78
2023/05/18 13:25:44;;;;;;;6.95;2.45;;;;;;;;;;10579631;27;20047;-79
2023/05/18 13:30:47;;;;;;;4.53;1.85;;;;;;;;;;10574864;27;20082;-78
2023/05/18 13:35:51;;;;;;;4.63;1.60;;;;;;;;;;10572209;28;20582;-78
2023/05/18 13:40:55;;;;;;;5.37;2.10;;;;;;;;;;10564586;27;20445;-78
2023/05/18 13:45:58;;;;;;;4.80;1.95;;;;;;;;;;10562010;27;20055;-81
2023/05/18 13:51:00;;;;;;;5.13;2.05;;;;;;;;;;10561198;27;20051;-79
2023/05/18 13:56:05;;;;;;;6.10;2.50;;;;;;;;;;10565180;27;20135;-77
2023/05/18 14:01:08;;;;;;;6.07;2.30;;;;;;;;;;10566657;27;20039;-79
2023/05/18 14:06:16;;;;;;;8.30;2.67;;;;;;;;;;10587056;27;20035;-79
2023/05/18 14:11:20;;;;;;;5.80;2.45;;;;;;;;;;10576215;27;20050;-79
2023/05/18 14:16:22;;;;;;;8.18;2.22;;;;;;;;;;10567217;27;20040;-77
2023/05/18 14:21:25;;;;;;;4.15;2.05;;;;;;;;;;10571213;28;20047;-79
2023/05/18 14:26:29;;;;;;;9.93;1.60;;;;;;;;;;10568486;27;20061;-79
2023/05/18 14:31:32;;;;;;;7.07;2.03;;;;;;;;;;10564404;28;20047;-78
2023/05/18 14:36:35;;;;;;;5.07;2.20;;;;;;;;;;10567477;28;20035;-77
2023/05/18 14:41:39;;;;;;;7.60;2.10;;;;;;;;;;10575383;28;20069;-77
2023/05/18 14:46:41;;;;;;;3.13;1.95;;;;;;;;;;10571944;28;20043;-78
2023/05/18 14:51:44;;;;;;;6.93;2.40;;;;;;;;;;10567537;28;20062;-79
2023/05/18 14:56:48;;;;;;;5.47;2.30;;;;;;;;;;10576608;28;20043;-78
2023/05/18 15:01:51;;;;;;;4.93;2.30;;;;;;;;;;10557623;28;20032;-76
2023/05/18 15:06:54;;;;;;;4.13;2.07;;;;;;;;;;10576568;28;20526;-76
2023/05/18 15:11:58;;;;;;;5.50;2.42;;;;;;;;;;10558139;28;20115;-77
2023/05/18 15:17:00;;;;;;;3.85;1.80;;;;;;;;;;10559811;28;20391;-78
2023/05/18 15:22:04;;;;;;;3.28;1.80;;;;;;;;;;10559327;28;20032;-80
2023/05/18 15:27:08;;;;;;;2.38;1.60;;;;;;;;;;10562982;28;20114;-78
2023/05/18 15:32:11;;;;;;;2.92;1.48;;;;;;;;;;10561395;28;20058;-79
2023/05/18 15:37:14;;;;;;;4.10;1.23;;;;;;;;;;10560542;28;20043;-79
2023/05/18 15:42:18;;;;;;;3.72;1.20;;;;;;;;;;10559484;28;20661;-79
2023/05/18 15:47:21;;;;;;;4.13;1.30;;;;;;;;;;10557169;28;20128;-80
2023/05/18 15:52:24;;;;;;;3.90;1.50;;;;;;;;;;10558971;28;20055;-77
2023/05/18 15:57:28;;;;;;;4.03;1.63;;;;;;;;;;10568012;27;20028;-79
2023/05/18 16:02:31;;;;;;;2.15;1.20;;;;;;;;;;10568923;27;20039;-79
2023/05/18 16:07:34;;;;;;;3.83;1.85;;;;;;;;;;10564978;27;20055;-79
2023/05/18 16:12:38;;;;;;;6.18;1.48;;;;;;;;;;10560756;27;20043;-78
2023/05/18 16:17:41;;;;;;;3.78;1.67;;;;;;;;;;10564009;27;20042;-78
2023/05/18 16:22:45;;;;;;;2.97;1.50;;;;;;;;;;10562814;27;20122;-79
2023/05/18 16:27:50;;;;;;;4.00;1.60;;;;;;;;;;10563131;27;20047;-77
2023/05/18 16:32:52;;;;;;;2.35;1.48;;;;;;;;;;10561223;27;20048;-78
2023/05/18 16:37:55;;;;;;;3.28;1.20;;;;;;;;;;10567890;28;20067;-79
2023/05/18 16:42:59;;;;;;;2.92;1.13;;;;;;;;;;10564012;27;20488;-79
2023/05/18 16:48:02;;;;;;;4.32;1.60;;;;;;;;;;10560731;27;20046;-79
2023/05/18 16:53:05;;;;;;;2.10;1.27;;;;;;;;;;10568445;27;20067;-79
2023/05/18 16:58:09;;;;;;;3.67;1.37;;;;;;;;;;10566181;27;20304;-81
2023/05/18 17:03:12;;;;;;;4.78;1.52;;;;;;;;;;10559529;27;20467;-79
2023/05/18 17:08:15;;;;;;;3.17;1.70;;;;;;;;;;10567158;27;20071;-79
2023/05/18 17:13:19;;;;;;;3.10;1.63;;;;;;;;;;10563499;27;20105;-79
2023/05/18 17:18:22;;;;;;;3.83;1.80;;;;;;;;;;10560925;27;20488;-78
2023/05/18 17:23:25;;;;;;;3.73;1.93;;;;;;;;;;10559237;27;20039;-79
2023/05/18 17:28:29;;;;;;;2.83;1.23;;;;;;;;;;10561418;27;20396;-79
2023/05/18 17:33:32;;;;;;;8.75;2.15;;;;;;;;;;10564139;27;20040;-79
2023/05/18 17:38:35;;;;;;;3.35;1.40;;;;;;;;;;10560567;27;20035;-79
2023/05/18 17:43:40;;;;;;;4.22;1.83;;;;;;;;;;10561486;27;20047;-80
2023/05/18 17:48:43;;;;;;;3.30;1.30;;;;;;;;;;10561360;27;20180;-80
2023/05/18 17:53:46;;;;;;;1.92;0.95;;;;;;;;;;10563862;27;20059;-79
2023/05/18 17:58:50;;;;;;;4.95;1.63;;;;;;;;;;10561423;27;20036;-79
2023/05/18 18:03:52;;;;;;;2.45;1.13;;;;;;;;;;10586828;27;20099;-79
2023/05/18 18:08:56;;;;;;;2.90;1.70;;;;;;;;;;10594018;27;20038;-80
2023/05/18 18:14:01;;;;;;;4.30;1.80;;;;;;;;;;10608940;27;20052;-79
2023/05/18 18:19:04;;;;;;;3.40;1.45;;;;;;;;;;10601896;27;20047;-80
2023/05/18 18:24:07;;;;;;;5.03;1.80;;;;;;;;;;10566149;27;20054;-81
2023/05/18 18:29:11;;;;;;;3.50;1.58;;;;;;;;;;10587648;27;20049;-78
2023/05/18 18:34:13;;;;;;;;;;;;;;;;;;10566686;28;20123;-80
2023/05/18 18:39:16;;;;;;;4.78;1.52;;;;;;;;;;10566966;28;19919;-81
2023/05/18 18:44:20;;;;;;;3.92;1.70;;;;;;;;;;10563042;28;20035;-79
2023/05/18 18:49:23;;;;;;;4.35;1.80;;;;;;;;;;10563733;28;20145;-81
2023/05/18 18:54:28;;;;;;;4.03;1.48;;;;;;;;;;10564581;28;20042;-80
2023/05/18 18:59:33;;;;;;;4.03;1.88;;;;;;;;;;10562679;28;20055;-80
2023/05/18 19:04:36;;;;;;;2.45;1.40;;;;;;;;;;10560876;28;20040;-80
2023/05/18 19:09:39;;;;;;;4.25;1.83;;;;;;;;;;10560038;28;20039;-81
2023/05/18 19:14:43;;;;;;;2.63;1.58;;;;;;;;;;10563597;28;20059;-81
2023/05/18 19:19:45;;;;;;;;;;;;;;;;;;10565292;28;21055;-80
2023/05/18 19:24:48;;;;;;;4.38;1.70;;;;;;;;;;10558794;28;19943;-78
2023/05/18 19:29:52;;;;;;;4.72;1.98;;;;;;;;;;10570264;28;20567;-79
2023/05/18 19:34:54;;;;;;;;;;;;;;;;;;10575171;28;20040;-80
2023/05/18 19:39:57;;;;;;;6.07;2.00;;;;;;;;;;10573836;27;20418;-80
2023/05/18 19:45:02;;;;;;;2.75;1.48;;;;;;;;;;10584098;28;20043;-79
2023/05/18 19:50:07;;;;;;;3.10;1.75;;;;;;;;;;10600734;27;20171;-80
2023/05/18 19:55:10;;;;;;;3.70;1.80;;;;;;;;;;10588173;28;20104;-79
2023/05/18 20:00:22;;;;;;;2.47;1.55;;;;;;;;;;10627409;27;20044;-80
2023/05/18 20:05:26;;;;;;;4.13;1.40;;;;;;;;;;10578438;28;20040;-79
2023/05/18 20:10:29;;;;;;;2.35;1.50;;;;;;;;;;10577666;28;20138;-78
2023/05/18 20:15:35;;;;;;;2.77;1.43;;;;;;;;;;10579749;28;20051;-79
2023/05/18 20:20:38;;;;;;;2.17;1.27;;;;;;;;;;10573512;27;20078;-80
2023/05/18 20:25:43;;;;;;;5.55;1.52;;;;;;;;;;10580359;22;20047;-78
2023/05/18 20:30:48;;;;;;;3.10;1.50;;;;;;;;;;10521710;28;20072;-79
2023/05/18 20:35:52;;;;;;;2.55;1.60;;;;;;;;;;10500017;28;20045;-79
2023/05/18 20:40:58;;;;;;;3.13;1.42;;;;;;;;;;10503679;28;20033;-79
2023/05/18 20:46:04;;;;;;;4.20;1.85;;;;;;;;;;10508322;28;20430;-80
2023/05/18 20:51:13;;;;;;;6.28;1.67;;;;;;;;;;10495234;28;20068;-80
2023/05/18 20:56:16;;;;;;;3.50;1.77;;;;;;;;;;10498696;28;20044;-80
2023/05/18 21:01:28;;;;;;;3.00;1.45;;;;;;;;;;10488059;28;20048;-79
2023/05/18 21:06:33;;;;;;;3.70;1.75;;;;;;;;;;10494086;28;20037;-78
2023/05/18 21:11:35;;;;;;;3.58;2.00;;;;;;;;;;10494541;28;20048;-79
2023/05/18 21:16:40;;;;;;;3.13;1.83;;;;;;;;;;10488222;28;20040;-79
2023/05/18 21:21:43;;;;;;;7.47;1.90;;;;;;;;;;10485146;28;20028;-79
2023/05/18 21:26:45;;;;;;;3.67;1.70;;;;;;;;;;10485726;28;20965;-77
2023/05/18 21:31:49;;;;;;;4.38;1.90;;;;;;;;;;10478979;28;20064;-79
2023/05/18 21:36:52;;;;;;;6.22;2.28;;;;;;;;;;10478747;28;20057;-79
2023/05/18 21:41:55;;;;;;;4.93;2.40;;;;;;;;;;10474549;28;20059;-80
2023/05/18 21:46:59;;;;;;;4.32;2.05;;;;;;;;;;10472362;28;20040;-79
2023/05/18 21:52:02;;;;;;;1.33;0.90;;;;;;;;;;10476671;28;20060;-79
2023/05/18 21:57:05;;;;;;;4.22;2.00;;;;;;;;;;10479511;28;20548;-78
2023/05/18 22:02:09;;;;;;;7.77;2.27;;;;;;;;;;10468484;28;20489;-79
2023/05/18 22:07:12;;;;;;;7.60;2.38;;;;;;;;;;10479282;28;20033;-79
2023/05/18 22:12:15;;;;;;;1.90;0.95;;;;;;;;;;10486256;28;20432;-80
2023/05/18 22:17:20;;;;;;;11.83;2.57;;;;;;;;;;10472085;28;20043;-80
2023/05/18 22:22:23;;;;;;;7.22;2.40;;;;;;;;;;10473733;28;20044;-79
2023/05/18 22:27:32;;;;;;;7.22;1.73;;;;;;;;;;10482699;28;20663;-79
2023/05/18 22:32:37;;;;;;;6.65;2.20;;;;;;;;;;10473005;28;20040;-79
2023/05/18 22:37:41;;;;;;;7.85;2.08;;;;;;;;;;10466511;28;20033;-79
2023/05/18 22:42:43;;;;;;;9.48;2.72;;;;;;;;;;10474708;28;20040;-79
2023/05/18 22:47:47;;;;;;;3.70;1.95;;;;;;;;;;10474949;28;20111;-78
2023/05/18 22:52:51;;;;;;;4.05;1.70;;;;;;;;;;10473408;28;20048;-80
2023/05/18 22:57:53;;;;;;;5.72;2.35;;;;;;;;;;10469432;28;20131;-78
2023/05/18 23:02:57;;;;;;;7.60;2.47;;;;;;;;;;10471546;28;20039;-79
2023/05/18 23:08:01;;;;;;;;;;;;;;;;;;10472243;28;20032;-79
2023/05/18 23:13:04;;;;;;;5.60;2.53;;;;;;;;;;10471567;28;20004;-79
2023/05/18 23:18:09;;;;;;;7.90;3.22;;;;;;;;;;10471220;28;20044;-78
2023/05/18 23:23:12;;;;;;;6.68;2.90;;;;;;;;;;10476180;28;20417;-78
2023/05/18 23:28:15;;;;;;;4.00;2.25;;;;;;;;;;10461254;28;20036;-78
2023/05/18 23:33:20;;;;;;;4.95;2.08;;;;;;;;;;10469122;28;20083;-79
2023/05/18 23:38:27;;;;;;;5.88;2.60;;;;;;;;;;10478266;28;20036;-78
2023/05/18 23:43:30;;;;;;;10.68;3.03;;;;;;;;;;10475123;28;20142;-77
2023/05/18 23:48:34;;;;;;;9.27;2.72;;;;;;;;;;10472849;28;20068;-79
2023/05/18 23:53:37;;;;;;;5.15;2.63;;;;;;;;;;10471259;28;20044;-77
2023/05/18 23:58:41;;;;;;;7.18;2.75;;;;;;;;;;10470351;28;20041;-78
